sensor_id;sensor_type;location;lat;lon;timestamp;temperature;humidity
20315;DHT22;10315;50.958;13.080;2022-12-18T00:08:11;-8.50;99.90
20315;DHT22;10315;50.958;13.080;2022-12-18T00:18:13;-8.50;99.90
20315;DHT22;10315;50.958;13.080;2022-12-18T00:28:16;-8.70;99.90
20315;DHT22;10315;50.958;13.080;2022-12-18T00:38:18;-8.80;99.90
20315;DHT22;10315;50.958;13.080;2022-12-18T00:48:21;-8.70;99.90
20315;DHT22;10315;50.958;13.080;2022-12-18T00:58:23;-8.80;99.90
20315;DHT22;10315;50.958;13.080;2022-12-18T01:08:26;-8.80;99.90
20315;DHT22;10315;50.958;13.080;2022-12-18T01:18:27;-8.90;99.90
20315;DHT22;10315;50.958;13.080;2022-12-18T01:28:30;-9.10;99.90
20315;DHT22;10315;50.958;13.080;2022-12-18T01:38:32;-9.20;99.90
20315;DHT22;10315;50.958;13.080;2022-12-18T01:48:35;-9.00;99.90
20315;DHT22;10315;50.958;13.080;2022-12-18T01:58:43;-8.90;99.90
20315;DHT22;10315;50.958;13.080;2022-12-18T02:09:01;-9.00;99.90
20315;DHT22;10315;50.958;13.080;2022-12-18T02:19:09;-9.40;99.90
20315;DHT22;10315;50.958;13.080;2022-12-18T02:29:22;-9.40;99.90
20315;DHT22;10315;50.958;13.080;2022-12-18T02:39:29;-9.10;99.90
20315;DHT22;10315;50.958;13.080;2022-12-18T02:49:39;-9.10;99.90
20315;DHT22;10315;50.958;13.080;2022-12-18T02:59:53;-9.30;99.90
20315;DHT22;10315;50.958;13.080;2022-12-18T03:10:00;-9.40;99.90
20315;DHT22;10315;50.958;13.080;2022-12-18T03:20:06;-9.50;99.90
20315;DHT22;10315;50.958;13.080;2022-12-18T03:30:12;-9.70;99.90
20315;DHT22;10315;50.958;13.080;2022-12-18T03:40:14;-9.90;99.90
20315;DHT22;10315;50.958;13.080;2022-12-18T03:50:20;-10.00;99.90
20315;DHT22;10315;50.958;13.080;2022-12-18T04:00:23;-9.90;99.90
20315;DHT22;10315;50.958;13.080;2022-12-18T04:10:26;-10.00;99.90
20315;DHT22;10315;50.958;13.080;2022-12-18T04:20:28;-10.00;99.90
20315;DHT22;10315;50.958;13.080;2022-12-18T04:30:31;-9.80;99.90
20315;DHT22;10315;50.958;13.080;2022-12-18T04:40:33;-9.80;99.90
20315;DHT22;10315;50.958;13.080;2022-12-18T04:50:37;-9.90;99.90
20315;DHT22;10315;50.958;13.080;2022-12-18T05:00:39;-9.90;99.90
20315;DHT22;10315;50.958;13.080;2022-12-18T05:10:42;-10.00;99.90
20315;DHT22;10315;50.958;13.080;2022-12-18T05:20:44;-10.30;99.90
20315;DHT22;10315;50.958;13.080;2022-12-18T05:30:49;-10.40;99.90
20315;DHT22;10315;50.958;13.080;2022-12-18T05:40:51;-10.10;99.90
20315;DHT22;10315;50.958;13.080;2022-12-18T05:50:55;-9.90;99.90
20315;DHT22;10315;50.958;13.080;2022-12-18T06:00:57;-10.20;99.90
20315;DHT22;10315;50.958;13.080;2022-12-18T06:11:00;-10.30;99.90
20315;DHT22;10315;50.958;13.080;2022-12-18T06:21:02;-10.50;99.90
20315;DHT22;10315;50.958;13.080;2022-12-18T06:31:06;-10.30;99.90
20315;DHT22;10315;50.958;13.080;2022-12-18T06:41:08;-10.20;99.90
20315;DHT22;10315;50.958;13.080;2022-12-18T06:51:11;-10.00;99.90
20315;DHT22;10315;50.958;13.080;2022-12-18T07:01:14;-10.00;99.90
20315;DHT22;10315;50.958;13.080;2022-12-18T07:11:18;-10.10;99.90
20315;DHT22;10315;50.958;13.080;2022-12-18T07:21:21;-10.20;99.90
20315;DHT22;10315;50.958;13.080;2022-12-18T07:31:25;-9.90;99.90
20315;DHT22;10315;50.958;13.080;2022-12-18T07:41:27;-9.60;99.90
20315;DHT22;10315;50.958;13.080;2022-12-18T07:51:30;-9.40;99.90
20315;DHT22;10315;50.958;13.080;2022-12-18T08:01:33;-9.00;99.90
20315;DHT22;10315;50.958;13.080;2022-12-18T08:11:37;-8.20;99.90
20315;DHT22;10315;50.958;13.080;2022-12-18T08:21:39;-7.80;99.90
20315;DHT22;10315;50.958;13.080;2022-12-18T08:31:42;-7.20;99.90
20315;DHT22;10315;50.958;13.080;2022-12-18T08:41:44;-6.70;99.90
20315;DHT22;10315;50.958;13.080;2022-12-18T08:52:08;-6.10;99.90
20315;DHT22;10315;50.958;13.080;2022-12-18T09:02:10;-5.60;99.90
20315;DHT22;10315;50.958;13.080;2022-12-18T09:12:13;-5.10;99.90
20315;DHT22;10315;50.958;13.080;2022-12-18T09:22:15;-4.50;99.90
20315;DHT22;10315;50.958;13.080;2022-12-18T09:32:18;-4.10;99.90
20315;DHT22;10315;50.958;13.080;2022-12-18T09:42:22;-3.80;99.90
20315;DHT22;10315;50.958;13.080;2022-12-18T09:52:27;-3.60;99.90
20315;DHT22;10315;50.958;13.080;2022-12-18T10:02:32;-3.20;99.90
20315;DHT22;10315;50.958;13.080;2022-12-18T10:12:42;-2.90;99.90
20315;DHT22;10315;50.958;13.080;2022-12-18T10:22:55;-2.20;99.90
20315;DHT22;10315;50.958;13.080;2022-12-18T10:33:02;-2.30;99.90
20315;DHT22;10315;50.958;13.080;2022-12-18T10:43:05;-2.00;99.90
20315;DHT22;10315;50.958;13.080;2022-12-18T10:53:19;-1.70;99.90
20315;DHT22;10315;50.958;13.080;2022-12-18T11:03:31;-1.20;99.90
20315;DHT22;10315;50.958;13.080;2022-12-18T11:13:34;-0.30;99.90
20315;DHT22;10315;50.958;13.080;2022-12-18T11:23:37;1.30;99.90
20315;DHT22;10315;50.958;13.080;2022-12-18T11:33:54;3.70;99.90
20315;DHT22;10315;50.958;13.080;2022-12-18T11:43:59;7.00;99.90
20315;DHT22;10315;50.958;13.080;2022-12-18T11:54:10;7.80;99.90
20315;DHT22;10315;50.958;13.080;2022-12-18T12:04:43;5.70;99.90
20315;DHT22;10315;50.958;13.080;2022-12-18T12:14:56;5.90;99.90
20315;DHT22;10315;50.958;13.080;2022-12-18T12:25:14;6.20;99.90
20315;DHT22;10315;50.958;13.080;2022-12-18T12:35:29;5.80;99.90
20315;DHT22;10315;50.958;13.080;2022-12-18T12:45:37;4.80;99.90
20315;DHT22;10315;50.958;13.080;2022-12-18T12:55:42;4.80;99.90
20315;DHT22;10315;50.958;13.080;2022-12-18T13:05:49;3.70;99.90
20315;DHT22;10315;50.958;13.080;2022-12-18T13:16:05;0.80;99.90
20315;DHT22;10315;50.958;13.080;2022-12-18T13:26:30;-0.60;99.90
20315;DHT22;10315;50.958;13.080;2022-12-18T13:36:34;-0.70;99.90
20315;DHT22;10315;50.958;13.080;2022-12-18T13:46:43;-0.30;99.90
20315;DHT22;10315;50.958;13.080;2022-12-18T13:56:47;-0.90;99.90
20315;DHT22;10315;50.958;13.080;2022-12-18T14:06:51;-1.60;99.90
20315;DHT22;10315;50.958;13.080;2022-12-18T14:16:55;-2.10;99.90
20315;DHT22;10315;50.958;13.080;2022-12-18T14:27:13;-2.80;99.90
20315;DHT22;10315;50.958;13.080;2022-12-18T14:37:17;-3.40;99.90
20315;DHT22;10315;50.958;13.080;2022-12-18T14:47:21;-3.70;99.90
20315;DHT22;10315;50.958;13.080;2022-12-18T14:57:25;-3.80;99.90
20315;DHT22;10315;50.958;13.080;2022-12-18T15:07:40;-4.00;99.90
20315;DHT22;10315;50.958;13.080;2022-12-18T15:17:44;-4.20;99.90
20315;DHT22;10315;50.958;13.080;2022-12-18T15:27:46;-4.40;99.90
20315;DHT22;10315;50.958;13.080;2022-12-18T15:37:50;-4.60;99.90
20315;DHT22;10315;50.958;13.080;2022-12-18T15:47:52;-4.90;99.90
20315;DHT22;10315;50.958;13.080;2022-12-18T15:57:55;-4.90;99.90
20315;DHT22;10315;50.958;13.080;2022-12-18T16:07:57;-4.80;99.90
20315;DHT22;10315;50.958;13.080;2022-12-18T16:18:00;-5.00;99.90
20315;DHT22;10315;50.958;13.080;2022-12-18T16:28:02;-4.90;99.90
20315;DHT22;10315;50.958;13.080;2022-12-18T16:38:05;-4.90;99.90
20315;DHT22;10315;50.958;13.080;2022-12-18T16:48:07;-5.00;99.90
20315;DHT22;10315;50.958;13.080;2022-12-18T16:58:10;-5.20;99.90
20315;DHT22;10315;50.958;13.080;2022-12-18T17:08:12;-5.40;99.90
20315;DHT22;10315;50.958;13.080;2022-12-18T17:18:15;-5.60;99.90
20315;DHT22;10315;50.958;13.080;2022-12-18T17:28:16;-5.40;99.90
20315;DHT22;10315;50.958;13.080;2022-12-18T17:38:19;-5.10;99.90
20315;DHT22;10315;50.958;13.080;2022-12-18T17:48:23;-5.10;99.90
20315;DHT22;10315;50.958;13.080;2022-12-18T17:58:26;-5.00;99.90
20315;DHT22;10315;50.958;13.080;2022-12-18T18:08:28;-4.50;99.90
20315;DHT22;10315;50.958;13.080;2022-12-18T18:18:32;-4.10;99.90
20315;DHT22;10315;50.958;13.080;2022-12-18T18:28:35;-3.90;99.90
20315;DHT22;10315;50.958;13.080;2022-12-18T18:38:38;-3.60;99.90
20315;DHT22;10315;50.958;13.080;2022-12-18T18:48:40;-3.50;99.90
20315;DHT22;10315;50.958;13.080;2022-12-18T18:58:44;-3.40;99.90
20315;DHT22;10315;50.958;13.080;2022-12-18T19:08:46;-3.30;99.90
20315;DHT22;10315;50.958;13.080;2022-12-18T19:18:49;-3.20;99.90
20315;DHT22;10315;50.958;13.080;2022-12-18T19:28:51;-2.90;99.90
20315;DHT22;10315;50.958;13.080;2022-12-18T19:38:56;-2.80;99.90
20315;DHT22;10315;50.958;13.080;2022-12-18T19:48:59;-2.60;99.90
20315;DHT22;10315;50.958;13.080;2022-12-18T19:59:03;-2.60;99.90
20315;DHT22;10315;50.958;13.080;2022-12-18T20:09:06;-2.60;99.90
20315;DHT22;10315;50.958;13.080;2022-12-18T20:19:10;-2.50;99.90
20315;DHT22;10315;50.958;13.080;2022-12-18T20:29:12;-2.50;99.90
20315;DHT22;10315;50.958;13.080;2022-12-18T20:39:15;-2.40;99.90
20315;DHT22;10315;50.958;13.080;2022-12-18T20:49:17;-2.30;99.90
20315;DHT22;10315;50.958;13.080;2022-12-18T20:59:20;-2.30;99.90
20315;DHT22;10315;50.958;13.080;2022-12-18T21:09:24;-2.30;99.90
20315;DHT22;10315;50.958;13.080;2022-12-18T21:19:28;-2.10;99.90
20315;DHT22;10315;50.958;13.080;2022-12-18T21:29:30;-2.20;99.90
20315;DHT22;10315;50.958;13.080;2022-12-18T21:39:33;-2.20;99.90
20315;DHT22;10315;50.958;13.080;2022-12-18T21:49:35;-2.00;99.90
20315;DHT22;10315;50.958;13.080;2022-12-18T21:59:40;-2.10;99.90
20315;DHT22;10315;50.958;13.080;2022-12-18T22:09:42;-2.10;99.90
20315;DHT22;10315;50.958;13.080;2022-12-18T22:19:45;-1.90;99.90
20315;DHT22;10315;50.958;13.080;2022-12-18T22:29:47;-1.80;99.90
20315;DHT22;10315;50.958;13.080;2022-12-18T22:40:08;-1.80;99.90
20315;DHT22;10315;50.958;13.080;2022-12-18T22:50:11;-1.60;99.90
20315;DHT22;10315;50.958;13.080;2022-12-18T23:00:15;-1.50;99.90
20315;DHT22;10315;50.958;13.080;2022-12-18T23:10:17;-1.60;99.90
20315;DHT22;10315;50.958;13.080;2022-12-18T23:20:20;-1.60;99.90
20315;DHT22;10315;50.958;13.080;2022-12-18T23:30:21;-1.50;99.90
20315;DHT22;10315;50.958;13.080;2022-12-18T23:40:24;-1.40;99.90
20315;DHT22;10315;50.958;13.080;2022-12-18T23:50:26;-1.60;99.90
